Terminal Aerodrome Forecast
Issued by NWS Goodland, KS

Home | Current Version | Previous Version | Text Only | Print | Product List | Glossary On
Versions: 1 2 3 4 5 6 7 8 9 10 11 12 13 14 15 16 17
492
FTUS43 KGLD 240242 AAB
TAFGLD
TAF AMD
KGLD 240242Z 2403/2424 35015G23KT P6SM OVC012
      TEMPO 2403/2407 OVC008
     FM241500 34019G29KT P6SM VCSH OVC008
     FM241800 35019G30KT P6SM OVC008
     FM242000 35019G30KT P6SM BKN020=

USA.gov is the U.S. government's official web portal to all federal, state and local government web resources and services.